KBML/BML METAR and TAF weather

Enter ICAO airport designator
Station Type Date Time Source
KBML METAR 2019/06/26 21:52 UTC NOAA

KBML 262152Z AUTO 00000KT 10SM CLR 28/13 A2998 RMK AO2 SLP148 T02780128


Station Type Date Time Source
KBML Decoded METAR 2019/06/26 21:52 UTC NOAA

BERLIN MUNICIPAL AIRPORT, NH, United States (KBML) 44-35N 71-11W 345M
Jun 26, 2019 - 05:52 PM EDT / 2019.06.26 2152 UTC
Wind: Calm:0
Visibility: 10 mile(s):0
Sky conditions: clear
Temperature: 82.0 F (27.8 C)
Dew Point: 55.0 F (12.8 C)
Relative Humidity: 39%
Pressure (altimeter): 29.98 in. Hg (1015 hPa)
ob: KBML 262152Z AUTO 00000KT 10SM CLR 28/13 A2998 RMK AO2 SLP148 T02780128
cycle: 22

Station Type Date Time Source
KBML TAF UTC NOAA

Error!

Example: see airport list